createdAt,value
2019-01-16T00:00:34.326Z,7.09
2019-01-16T00:01:34.321Z,7.09
2019-01-16T00:02:34.291Z,7.09
2019-01-16T00:03:34.291Z,7.16
2019-01-16T00:04:34.282Z,7.08
2019-01-16T00:05:34.265Z,7.04
2019-01-16T00:06:34.254Z,7.08
2019-01-16T00:07:34.240Z,7.15
2019-01-16T00:08:34.240Z,7.07
2019-01-16T00:09:34.219Z,7.09
2019-01-16T00:10:34.208Z,7.17
2019-01-16T00:11:34.194Z,7.07
2019-01-16T00:12:34.191Z,7.09
2019-01-16T00:13:34.187Z,7.08
2019-01-16T00:14:34.168Z,7.01
2019-01-16T00:15:34.152Z,7.07
2019-01-16T00:16:34.138Z,7.05
2019-01-16T00:17:34.127Z,7.05
2019-01-16T00:18:34.132Z,7.05
2019-01-16T00:19:34.107Z,7.16
2019-01-16T00:20:34.097Z,7.07
2019-01-16T00:21:34.089Z,7.07
2019-01-16T00:22:34.074Z,7.07
2019-01-16T00:23:34.079Z,7.07
2019-01-16T00:24:34.075Z,7.09
2019-01-16T00:25:34.044Z,7.02
2019-01-16T00:26:34.031Z,7.07
2019-01-16T00:27:34.021Z,7.15
2019-01-16T00:28:34.042Z,7.17
2019-01-16T00:29:34.010Z,7.07
2019-01-16T00:30:33.990Z,7.22
2019-01-16T00:31:33.976Z,7.17
2019-01-16T00:32:33.967Z,7.19
2019-01-16T00:33:33.960Z,7.19
2019-01-16T00:34:33.959Z,7.19
2019-01-16T00:35:33.943Z,7.23
2019-01-16T00:36:33.928Z,7.20
2019-01-16T00:37:33.916Z,7.22
2019-01-16T00:38:33.900Z,7.17
2019-01-16T00:39:33.904Z,7.19
2019-01-16T00:40:33.883Z,7.27
2019-01-16T00:41:33.868Z,7.20
2019-01-16T00:42:33.856Z,7.26
2019-01-16T00:43:33.846Z,7.20
2019-01-16T00:44:33.846Z,7.20
2019-01-16T00:45:33.827Z,7.19
2019-01-16T00:46:33.822Z,7.27
2019-01-16T00:47:33.804Z,7.32
2019-01-16T00:48:33.792Z,7.27
2019-01-16T00:49:33.796Z,7.34
2019-01-16T00:50:33.771Z,7.34
2019-01-16T00:51:33.759Z,7.23
2019-01-16T00:52:33.759Z,7.37
2019-01-16T00:53:33.746Z,7.35
2019-01-16T00:54:33.740Z,7.31
2019-01-16T00:55:33.720Z,7.32
2019-01-16T00:56:33.711Z,7.31
2019-01-16T00:57:33.697Z,7.27
2019-01-16T00:58:33.691Z,7.31
2019-01-16T00:59:33.775Z,7.37
2019-01-16T01:00:33.665Z,7.31
2019-01-16T01:01:33.653Z,7.35
2019-01-16T01:02:33.652Z,7.34
2019-01-16T01:03:33.656Z,7.38
2019-01-16T01:04:33.629Z,7.45
2019-01-16T01:05:33.610Z,7.42
2019-01-16T01:06:33.602Z,7.44
2019-01-16T01:07:33.591Z,7.40
2019-01-16T01:08:33.576Z,7.37
2019-01-16T01:09:33.576Z,7.40
2019-01-16T01:10:33.563Z,7.35
2019-01-16T01:11:33.545Z,7.31
2019-01-16T01:12:33.534Z,7.32
2019-01-16T01:13:33.527Z,7.41
2019-01-16T01:14:33.514Z,7.29
2019-01-16T01:15:33.517Z,7.40
2019-01-16T01:16:33.491Z,7.40
2019-01-16T01:17:33.484Z,7.40
2019-01-16T01:18:40.445Z,7.37
2019-01-16T01:19:34.459Z,7.37
2019-01-16T01:20:33.465Z,7.49
2019-01-16T01:21:33.440Z,7.45
2019-01-16T01:22:33.430Z,7.42
2019-01-16T01:23:33.416Z,7.40
2019-01-16T01:24:33.411Z,7.52
2019-01-16T01:25:33.410Z,7.38
2019-01-16T01:26:33.388Z,7.40
2019-01-16T01:27:33.374Z,7.45
2019-01-16T01:28:33.370Z,7.49
2019-01-16T01:29:33.350Z,7.50
2019-01-16T01:30:33.354Z,7.44
2019-01-16T01:31:33.332Z,7.47
2019-01-16T01:32:33.319Z,7.49
2019-01-16T01:33:33.312Z,7.47
2019-01-16T01:34:33.297Z,7.41
2019-01-16T01:35:33.303Z,7.37
2019-01-16T01:36:33.280Z,7.47
2019-01-16T01:37:33.272Z,7.41
2019-01-16T01:38:33.255Z,7.38
2019-01-16T01:39:33.243Z,7.44
2019-01-16T01:40:33.247Z,7.44
2019-01-16T01:41:33.237Z,7.42
2019-01-16T01:42:33.222Z,7.42
2019-01-16T01:43:33.204Z,7.44
2019-01-16T01:44:33.190Z,7.45
2019-01-16T01:45:33.223Z,7.45
2019-01-16T01:46:33.172Z,7.45
2019-01-16T01:47:33.161Z,7.44
2019-01-16T01:48:39.789Z,7.47
2019-01-16T01:49:34.135Z,7.44
2019-01-16T01:50:33.127Z,7.45
2019-01-16T01:51:33.126Z,7.42
2019-01-16T01:52:33.104Z,7.47
2019-01-16T01:53:33.092Z,7.49
2019-01-16T01:54:33.083Z,7.49
2019-01-16T01:55:33.075Z,7.47
2019-01-16T01:56:33.074Z,7.52
2019-01-16T01:57:33.050Z,7.41
2019-01-16T01:58:33.040Z,7.45
2019-01-16T01:59:33.028Z,7.47
2019-01-16T02:00:33.026Z,7.47
2019-01-16T02:01:33.017Z,7.49
2019-01-16T02:02:32.997Z,7.49
2019-01-16T02:03:32.985Z,7.53
2019-01-16T02:04:32.975Z,7.49
2019-01-16T02:05:32.965Z,7.47
2019-01-16T02:06:32.971Z,7.55
2019-01-16T02:07:32.952Z,7.55
2019-01-16T02:08:32.930Z,7.52
2019-01-16T02:09:32.921Z,7.49
2019-01-16T02:10:32.915Z,7.52
2019-01-16T02:11:32.913Z,7.55
2019-01-16T02:12:32.888Z,7.49
2019-01-16T02:13:32.883Z,7.52
2019-01-16T02:14:32.867Z,7.52
2019-01-16T02:15:32.854Z,7.53
2019-01-16T02:16:32.865Z,7.55
2019-01-16T02:17:32.841Z,7.52
2019-01-16T02:18:32.828Z,7.52
2019-01-16T02:19:32.817Z,7.45
2019-01-16T02:20:32.805Z,7.52
2019-01-16T02:21:32.811Z,7.58
2019-01-16T02:22:32.784Z,7.53
2019-01-16T02:23:32.771Z,7.55
2019-01-16T02:24:32.765Z,7.53
2019-01-16T02:25:32.752Z,7.52
2019-01-16T02:26:32.745Z,7.55
2019-01-16T02:27:32.744Z,7.52
2019-01-16T02:28:32.722Z,7.50
2019-01-16T02:29:32.714Z,7.49
2019-01-16T02:30:32.697Z,7.55
2019-01-16T02:31:32.692Z,7.53
2019-01-16T02:32:32.697Z,7.45
2019-01-16T02:33:32.665Z,7.53
2019-01-16T02:34:32.654Z,7.45
2019-01-16T02:35:32.649Z,7.53
2019-01-16T02:36:32.633Z,7.45
2019-01-16T02:37:32.633Z,7.52
2019-01-16T02:38:32.625Z,7.56
2019-01-16T02:39:32.603Z,7.52
2019-01-16T02:40:32.590Z,7.45
2019-01-16T02:41:32.753Z,7.45
2019-01-16T02:42:32.587Z,7.45
2019-01-16T02:43:32.557Z,7.49
2019-01-16T02:44:32.546Z,7.50
2019-01-16T02:45:32.541Z,7.42
2019-01-16T02:46:32.549Z,7.42
2019-01-16T02:47:32.589Z,7.50
2019-01-16T02:48:32.542Z,7.55
2019-01-16T02:49:32.685Z,7.45
2019-01-16T02:50:32.484Z,7.55
2019-01-16T02:51:32.543Z,7.49
2019-01-16T02:52:32.540Z,7.52
2019-01-16T02:53:32.456Z,7.50
2019-01-16T02:54:33.518Z,7.52
2019-01-16T02:55:33.928Z,7.44
2019-01-16T02:56:32.423Z,7.44
2019-01-16T02:57:32.416Z,7.42
2019-01-16T02:58:32.425Z,7.44
2019-01-16T02:59:32.385Z,7.44
2019-01-16T03:00:32.376Z,7.49
2019-01-16T03:01:34.627Z,7.53
2019-01-16T03:02:32.367Z,7.44
2019-01-16T03:03:32.348Z,7.37
2019-01-16T03:04:32.354Z,7.40
2019-01-16T03:05:32.323Z,7.35
2019-01-16T03:06:32.309Z,7.34
2019-01-16T03:07:32.497Z,7.34
2019-01-16T03:08:32.291Z,7.37
2019-01-16T03:09:32.286Z,7.37
2019-01-16T03:10:32.269Z,7.31
2019-01-16T03:11:32.284Z,7.37
2019-01-16T03:12:32.244Z,7.35
2019-01-16T03:13:32.249Z,7.31
2019-01-16T03:14:32.240Z,7.37
2019-01-16T03:15:32.215Z,7.35
2019-01-16T03:16:32.208Z,7.26
2019-01-16T03:17:32.220Z,7.34
2019-01-16T03:18:32.204Z,7.35
2019-01-16T03:19:32.169Z,7.35
2019-01-16T03:20:32.174Z,7.32
2019-01-16T03:21:32.148Z,7.27
2019-01-16T03:22:32.139Z,7.34
2019-01-16T03:23:32.137Z,7.37
2019-01-16T03:24:32.123Z,7.32
2019-01-16T03:25:32.108Z,7.32
2019-01-16T03:26:32.096Z,7.35
2019-01-16T03:27:32.087Z,7.24
2019-01-16T03:28:32.093Z,7.26
2019-01-16T03:29:32.066Z,7.19
2019-01-16T03:30:32.062Z,7.17
2019-01-16T03:31:32.044Z,7.26
2019-01-16T03:32:32.043Z,7.20
2019-01-16T03:33:32.031Z,7.19
2019-01-16T03:34:32.015Z,7.22
2019-01-16T03:35:32.000Z,7.17
2019-01-16T03:36:32.004Z,7.19
2019-01-16T03:37:32.128Z,7.24
2019-01-16T03:38:31.980Z,7.20
2019-01-16T03:39:31.957Z,7.22
2019-01-16T03:40:31.971Z,7.19
2019-01-16T03:41:31.947Z,7.17
2019-01-16T03:42:31.931Z,7.22
2019-01-16T03:43:31.924Z,7.22
2019-01-16T03:44:31.908Z,7.22
2019-01-16T03:45:31.893Z,7.17
2019-01-16T03:46:32.470Z,7.27
2019-01-16T03:47:32.445Z,7.22
2019-01-16T03:48:31.877Z,7.20
2019-01-16T03:49:31.870Z,7.19
2019-01-16T03:50:31.879Z,7.20
2019-01-16T03:51:31.838Z,7.23
2019-01-16T03:52:31.833Z,7.16
2019-01-16T03:53:31.826Z,7.20
2019-01-16T03:54:31.798Z,7.22
2019-01-16T03:55:31.789Z,7.22
2019-01-16T03:56:31.774Z,7.24
2019-01-16T03:57:31.765Z,7.23
2019-01-16T03:58:31.782Z,7.24
2019-01-16T03:59:31.740Z,7.20
2019-01-16T04:00:31.737Z,7.23
2019-01-16T04:01:31.724Z,7.20
2019-01-16T04:02:31.708Z,7.20
2019-01-16T04:03:31.698Z,7.24
2019-01-16T04:04:31.697Z,7.24
2019-01-16T04:05:31.682Z,7.16
2019-01-16T04:06:31.709Z,7.19
2019-01-16T04:07:31.677Z,7.19
2019-01-16T04:08:31.645Z,7.16
2019-01-16T04:09:31.648Z,7.15
2019-01-16T04:10:31.627Z,7.19
2019-01-16T04:11:31.613Z,7.20
2019-01-16T04:12:31.602Z,7.19
2019-01-16T04:13:31.593Z,7.23
2019-01-16T04:14:31.607Z,7.20
2019-01-16T04:15:31.572Z,7.19
2019-01-16T04:16:31.561Z,7.20
2019-01-16T04:17:31.549Z,7.17
2019-01-16T04:18:31.540Z,7.17
2019-01-16T04:19:31.543Z,7.20
2019-01-16T04:20:31.523Z,7.17
2019-01-16T04:21:31.506Z,7.23
2019-01-16T04:22:31.493Z,7.23
2019-01-16T04:23:31.486Z,7.19
2019-01-16T04:24:31.491Z,7.19
2019-01-16T04:25:31.477Z,7.17
2019-01-16T04:26:31.460Z,7.17
2019-01-16T04:27:31.442Z,7.19
2019-01-16T04:28:31.433Z,7.16
2019-01-16T04:29:31.461Z,7.16
2019-01-16T04:30:31.416Z,7.23
2019-01-16T04:31:31.399Z,7.22
2019-01-16T04:32:31.401Z,7.19
2019-01-16T04:33:31.380Z,7.24
2019-01-16T04:34:31.368Z,7.17
2019-01-16T04:35:31.369Z,7.17
2019-01-16T04:36:31.361Z,7.20
2019-01-16T04:37:31.336Z,7.17
2019-01-16T04:38:31.327Z,7.16
2019-01-16T04:39:31.313Z,7.19
2019-01-16T04:40:31.320Z,7.22
2019-01-16T04:41:31.291Z,7.16
2019-01-16T04:42:31.280Z,7.17
2019-01-16T04:43:31.274Z,7.19
2019-01-16T04:44:31.266Z,7.19
2019-01-16T04:45:31.261Z,7.24
2019-01-16T04:46:31.236Z,7.20
2019-01-16T04:47:31.235Z,7.20
2019-01-16T04:48:31.219Z,7.20
2019-01-16T04:49:31.221Z,7.27
2019-01-16T04:50:31.209Z,7.23
2019-01-16T04:51:31.213Z,7.26
2019-01-16T04:52:31.171Z,7.26
2019-01-16T04:53:31.161Z,7.35
2019-01-16T04:54:31.217Z,7.16
2019-01-16T04:55:31.151Z,7.22
2019-01-16T04:56:31.128Z,7.27
2019-01-16T04:57:31.117Z,7.22
2019-01-16T04:58:31.110Z,7.20
2019-01-16T04:59:31.097Z,7.24
2019-01-16T05:00:31.110Z,7.19
2019-01-16T05:01:31.146Z,7.27
2019-01-16T05:02:31.062Z,7.31
2019-01-16T05:03:31.056Z,7.27
2019-01-16T05:04:31.042Z,7.31
2019-01-16T05:05:31.043Z,7.31
2019-01-16T05:06:31.019Z,7.20
2019-01-16T05:07:31.032Z,7.29
2019-01-16T05:08:31.007Z,7.34
2019-01-16T05:09:30.993Z,7.29
2019-01-16T05:10:31.280Z,7.32
2019-01-16T05:11:31.045Z,7.31
2019-01-16T05:12:30.978Z,7.32
2019-01-16T05:13:30.949Z,7.27
2019-01-16T05:14:30.933Z,7.22
2019-01-16T05:15:30.922Z,7.26
2019-01-16T05:16:30.966Z,7.32
2019-01-16T05:17:30.902Z,7.19
2019-01-16T05:18:30.897Z,7.17
2019-01-16T05:19:38.380Z,7.22
2019-01-16T05:20:31.907Z,7.27
2019-01-16T05:21:30.873Z,7.17
2019-01-16T05:22:30.858Z,7.22
2019-01-16T05:23:30.838Z,7.29
2019-01-16T05:24:30.834Z,7.34
2019-01-16T05:25:30.815Z,7.22
2019-01-16T05:26:30.819Z,7.31
2019-01-16T05:27:30.797Z,7.29
2019-01-16T05:28:30.784Z,7.31
2019-01-16T05:29:30.771Z,7.22
2019-01-16T05:30:30.763Z,7.23
2019-01-16T05:31:31.017Z,7.31
2019-01-16T05:32:30.741Z,7.29
2019-01-16T05:33:30.734Z,7.31
2019-01-16T05:34:30.721Z,7.37
2019-01-16T05:35:30.708Z,7.29
2019-01-16T05:36:30.708Z,7.31
2019-01-16T05:37:30.688Z,7.31
2019-01-16T05:38:30.682Z,7.26
2019-01-16T05:39:30.667Z,7.32
2019-01-16T05:40:30.659Z,7.29
2019-01-16T05:41:30.653Z,7.34
2019-01-16T05:42:30.636Z,7.19
2019-01-16T05:43:30.644Z,7.29
2019-01-16T05:44:30.618Z,7.20
2019-01-16T05:45:30.598Z,7.27
2019-01-16T05:46:30.634Z,7.17
2019-01-16T05:47:30.579Z,7.16
2019-01-16T05:48:30.572Z,7.24
2019-01-16T05:49:30.570Z,7.22
2019-01-16T05:50:30.549Z,7.32
2019-01-16T05:51:30.536Z,7.29
2019-01-16T05:52:30.534Z,7.31
2019-01-16T05:53:30.542Z,7.34
2019-01-16T05:54:30.502Z,7.32
2019-01-16T05:55:30.499Z,7.31
2019-01-16T05:56:30.485Z,7.34
2019-01-16T05:57:30.489Z,7.37
2019-01-16T05:58:30.458Z,7.31
2019-01-16T05:59:30.449Z,7.34
2019-01-16T06:00:30.438Z,7.35
2019-01-16T06:01:30.432Z,7.34
2019-01-16T06:02:30.429Z,7.34
2019-01-16T06:03:30.425Z,7.29
2019-01-16T06:04:30.399Z,7.31
2019-01-16T06:05:30.387Z,7.34
2019-01-16T06:06:30.420Z,7.29
2019-01-16T06:07:30.375Z,7.31
2019-01-16T06:08:30.355Z,7.35
2019-01-16T06:09:30.346Z,7.35
2019-01-16T06:10:30.356Z,7.40
2019-01-16T06:11:30.329Z,7.35
2019-01-16T06:12:30.334Z,7.35
2019-01-16T06:13:30.299Z,7.35
2019-01-16T06:14:30.289Z,7.34
2019-01-16T06:15:30.282Z,7.35
2019-01-16T06:16:30.267Z,7.32
2019-01-16T06:17:30.281Z,7.35
2019-01-16T06:18:30.244Z,7.31
2019-01-16T06:19:30.234Z,7.34
2019-01-16T06:20:30.224Z,7.42
2019-01-16T06:21:30.212Z,7.34
2019-01-16T06:22:30.519Z,7.34
2019-01-16T06:23:30.194Z,7.35
2019-01-16T06:24:30.183Z,7.29
2019-01-16T06:25:30.170Z,7.27
2019-01-16T06:26:30.167Z,7.35
2019-01-16T06:27:30.451Z,7.38
2019-01-16T06:28:30.150Z,7.34
2019-01-16T06:29:30.168Z,7.32
2019-01-16T06:30:30.116Z,7.32
2019-01-16T06:31:30.111Z,7.31
2019-01-16T06:32:30.094Z,7.31
2019-01-16T06:33:30.096Z,7.38
2019-01-16T06:34:30.076Z,7.34
2019-01-16T06:35:30.102Z,7.32
2019-01-16T06:36:30.050Z,7.32
2019-01-16T06:37:30.041Z,7.37
2019-01-16T06:38:30.073Z,7.38
2019-01-16T06:39:30.036Z,7.34
2019-01-16T06:40:30.023Z,7.32
2019-01-16T06:41:29.996Z,7.32
2019-01-16T06:42:30.069Z,7.32
2019-01-16T06:43:30.041Z,7.29
2019-01-16T06:44:30.914Z,7.31
2019-01-16T06:45:29.956Z,7.31
2019-01-16T06:46:29.944Z,7.37
2019-01-16T06:47:29.936Z,7.35
2019-01-16T06:48:29.934Z,7.38
2019-01-16T06:49:29.912Z,7.31
2019-01-16T06:50:29.900Z,7.34
2019-01-16T06:51:29.898Z,7.34
2019-01-16T06:52:29.880Z,7.34
2019-01-16T06:53:29.907Z,7.31
2019-01-16T06:54:29.858Z,7.32
2019-01-16T06:55:29.879Z,7.37
2019-01-16T06:56:29.837Z,7.31
2019-01-16T06:57:29.824Z,7.34
2019-01-16T06:58:29.815Z,7.34
2019-01-16T06:59:29.813Z,7.31
2019-01-16T07:00:29.920Z,7.31
2019-01-16T07:01:29.860Z,7.34
2019-01-16T07:02:29.786Z,7.26
2019-01-16T07:03:29.776Z,7.29
2019-01-16T07:04:29.790Z,7.27
2019-01-16T07:05:29.742Z,7.34
2019-01-16T07:06:29.725Z,7.26
2019-01-16T07:07:29.728Z,7.27
2019-01-16T07:08:29.710Z,7.17
2019-01-16T07:09:29.716Z,7.20
2019-01-16T07:10:29.686Z,7.22
2019-01-16T07:11:29.685Z,7.20
2019-01-16T07:12:29.745Z,7.20
2019-01-16T07:13:29.661Z,7.22
2019-01-16T07:14:29.661Z,7.20
2019-01-16T07:15:29.639Z,7.24
2019-01-16T07:16:29.664Z,7.20
2019-01-16T07:17:29.615Z,7.26
2019-01-16T07:18:29.607Z,7.20
2019-01-16T07:19:29.603Z,7.19
2019-01-16T07:20:31.324Z,7.23
2019-01-16T07:21:29.569Z,7.19
2019-01-16T07:22:29.682Z,7.24
2019-01-16T07:23:29.573Z,7.19
2019-01-16T07:24:29.568Z,7.20
2019-01-16T07:25:29.530Z,7.19
2019-01-16T07:26:29.529Z,7.19
2019-01-16T07:27:29.512Z,7.23
2019-01-16T07:28:29.618Z,7.20
2019-01-16T07:29:29.494Z,7.24
2019-01-16T07:30:29.474Z,7.22
2019-01-16T07:31:29.464Z,7.20
2019-01-16T07:32:29.457Z,7.24
2019-01-16T07:33:29.438Z,7.22
2019-01-16T07:34:29.439Z,7.32
2019-01-16T07:35:29.416Z,7.16
2019-01-16T07:36:29.408Z,7.22
2019-01-16T07:37:29.394Z,7.20
2019-01-16T07:38:29.406Z,7.17
2019-01-16T07:39:29.403Z,7.26
2019-01-16T07:40:29.360Z,7.35
2019-01-16T07:41:29.351Z,7.17
2019-01-16T07:42:29.341Z,7.26
2019-01-16T07:43:29.330Z,7.32
2019-01-16T07:44:29.323Z,7.29
2019-01-16T07:45:29.335Z,7.34
2019-01-16T07:46:29.301Z,7.23
2019-01-16T07:47:29.284Z,7.31
2019-01-16T07:48:29.282Z,7.37
2019-01-16T07:49:29.266Z,7.32
2019-01-16T07:50:29.357Z,7.31
2019-01-16T07:51:29.258Z,7.34
2019-01-16T07:52:29.236Z,7.34
2019-01-16T07:53:29.226Z,7.31
2019-01-16T07:54:29.219Z,7.32
2019-01-16T07:55:29.226Z,7.32
2019-01-16T07:56:29.195Z,7.34
2019-01-16T07:57:29.185Z,7.37
2019-01-16T07:58:29.166Z,7.40
2019-01-16T07:59:29.172Z,7.34
2019-01-16T08:00:29.165Z,7.35
2019-01-16T08:01:29.138Z,7.34
2019-01-16T08:02:29.129Z,7.31
2019-01-16T08:03:29.230Z,7.37
2019-01-16T08:04:29.107Z,7.32
2019-01-16T08:05:29.104Z,7.40
2019-01-16T08:06:29.092Z,7.32
2019-01-16T08:07:29.085Z,7.40
2019-01-16T08:08:29.112Z,7.32
2019-01-16T08:09:29.049Z,7.38
2019-01-16T08:10:29.055Z,7.37
2019-01-16T08:11:29.027Z,7.44
2019-01-16T08:12:29.015Z,7.45
2019-01-16T08:13:29.026Z,7.41
2019-01-16T08:14:29.005Z,7.45
2019-01-16T08:15:29.075Z,7.41
2019-01-16T08:16:28.975Z,7.44
2019-01-16T08:17:28.966Z,7.41
2019-01-16T08:18:28.956Z,7.37
2019-01-16T08:19:28.940Z,7.47
2019-01-16T08:20:28.932Z,7.47
2019-01-16T08:21:28.932Z,7.45
2019-01-16T08:22:28.909Z,7.37
2019-01-16T08:23:28.900Z,7.42
2019-01-16T08:24:28.909Z,7.47
2019-01-16T08:25:28.878Z,7.49
2019-01-16T08:26:28.882Z,7.50
2019-01-16T08:27:28.854Z,7.47
2019-01-16T08:28:28.850Z,7.42
2019-01-16T08:29:28.872Z,7.45
2019-01-16T08:30:28.835Z,7.41
2019-01-16T08:31:28.842Z,7.49
2019-01-16T08:32:28.816Z,7.49
2019-01-16T08:33:28.796Z,7.49
2019-01-16T08:34:28.782Z,7.52
2019-01-16T08:35:28.775Z,7.45
2019-01-16T08:36:28.775Z,7.52
2019-01-16T08:37:28.749Z,7.58
2019-01-16T08:38:28.743Z,7.56
2019-01-16T08:39:28.747Z,7.55
2019-01-16T08:40:28.718Z,7.55
2019-01-16T08:41:28.718Z,7.55
2019-01-16T08:42:28.695Z,7.55
2019-01-16T08:43:28.685Z,7.56
2019-01-16T08:44:28.679Z,7.56
2019-01-16T08:45:28.704Z,7.59
2019-01-16T08:46:28.668Z,7.58
2019-01-16T08:47:28.643Z,7.63
2019-01-16T08:48:28.634Z,7.59
2019-01-16T08:49:28.642Z,7.63
2019-01-16T08:50:32.601Z,7.56
2019-01-16T08:51:28.625Z,7.55
2019-01-16T08:52:28.626Z,7.56
2019-01-16T08:53:28.584Z,7.71
2019-01-16T08:54:28.567Z,7.58
2019-01-16T08:55:28.567Z,7.66
2019-01-16T08:56:28.558Z,7.72
2019-01-16T08:57:28.545Z,7.69
2019-01-16T08:58:28.540Z,7.74
2019-01-16T08:59:28.516Z,7.71
2019-01-16T09:00:28.530Z,7.74
2019-01-16T09:01:32.487Z,7.74
2019-01-16T09:02:28.494Z,7.71
2019-01-16T09:03:28.487Z,7.74
2019-01-16T09:04:28.467Z,7.67
2019-01-16T09:05:28.459Z,7.71
2019-01-16T09:06:28.444Z,7.71
2019-01-16T09:07:28.443Z,7.67
2019-01-16T09:08:28.449Z,7.74
2019-01-16T09:09:28.421Z,7.69
2019-01-16T09:10:28.415Z,7.72
2019-01-16T09:11:28.393Z,7.67
2019-01-16T09:12:28.394Z,7.69
2019-01-16T09:13:28.370Z,7.67
2019-01-16T09:14:28.355Z,7.67
2019-01-16T09:15:34.727Z,7.63
2019-01-16T09:16:29.338Z,7.62
2019-01-16T09:17:28.335Z,7.69
2019-01-16T09:18:28.335Z,7.71
2019-01-16T09:19:28.302Z,7.69
2019-01-16T09:20:28.293Z,7.59
2019-01-16T09:21:28.305Z,7.62
2019-01-16T09:22:28.303Z,7.63
2019-01-16T09:23:28.265Z,7.62
2019-01-16T09:24:28.259Z,7.71
2019-01-16T09:25:28.248Z,7.66
2019-01-16T09:26:28.240Z,7.71
2019-01-16T09:27:28.240Z,7.67
2019-01-16T09:28:28.214Z,7.63
2019-01-16T09:29:28.208Z,7.69
2019-01-16T09:30:28.192Z,7.67
2019-01-16T09:31:28.180Z,7.71
2019-01-16T09:32:28.185Z,7.71
2019-01-16T09:33:28.156Z,7.75
2019-01-16T09:34:28.151Z,7.74
2019-01-16T09:35:28.133Z,7.74
2019-01-16T09:36:28.122Z,7.67
2019-01-16T09:37:28.128Z,7.69
2019-01-16T09:38:28.103Z,7.71
2019-01-16T09:39:28.099Z,7.72
2019-01-16T09:40:28.090Z,7.75
2019-01-16T09:41:28.098Z,7.72
2019-01-16T09:42:28.108Z,7.75
2019-01-16T09:43:28.056Z,7.78
2019-01-16T09:44:28.047Z,7.78
2019-01-16T09:45:28.046Z,7.71
2019-01-16T09:46:28.027Z,7.71
2019-01-16T09:47:28.847Z,7.69
2019-01-16T09:48:28.011Z,7.74
2019-01-16T09:49:27.994Z,7.67
2019-01-16T09:50:27.978Z,7.72
2019-01-16T09:51:27.976Z,7.75
2019-01-16T09:52:27.959Z,7.71
2019-01-16T09:53:27.958Z,7.69
2019-01-16T09:54:27.948Z,7.56
2019-01-16T09:55:27.927Z,7.59
2019-01-16T09:56:27.909Z,7.56
2019-01-16T09:57:27.905Z,7.50
2019-01-16T09:58:27.907Z,7.47
2019-01-16T09:59:27.898Z,7.45
2019-01-16T10:00:27.868Z,7.47
2019-01-16T10:01:27.857Z,7.50
2019-01-16T10:02:27.846Z,7.50
2019-01-16T10:03:27.847Z,7.52
2019-01-16T10:04:27.824Z,7.56
2019-01-16T10:05:27.842Z,7.53
2019-01-16T10:06:27.803Z,7.56
2019-01-16T10:07:27.793Z,7.50
2019-01-16T10:08:27.799Z,7.50
2019-01-16T10:09:27.783Z,7.55
2019-01-16T10:10:27.763Z,7.50
2019-01-16T10:11:27.751Z,7.52
2019-01-16T10:12:27.739Z,7.49
2019-01-16T10:13:27.769Z,7.56
2019-01-16T10:14:27.723Z,7.55
2019-01-16T10:15:27.725Z,7.58
2019-01-16T10:16:27.698Z,7.55
2019-01-16T10:17:27.685Z,7.55
2019-01-16T10:18:27.719Z,7.56
2019-01-16T10:19:27.667Z,7.58
2019-01-16T10:20:27.660Z,7.52
2019-01-16T10:21:27.673Z,7.55
2019-01-16T10:22:27.637Z,7.53
2019-01-16T10:23:27.681Z,7.55
2019-01-16T10:24:27.612Z,7.56
2019-01-16T10:25:27.601Z,7.58
2019-01-16T10:26:27.591Z,7.56
2019-01-16T10:27:27.607Z,7.56
2019-01-16T10:28:27.571Z,7.58
2019-01-16T10:29:27.570Z,7.55
2019-01-16T10:30:27.552Z,7.55
2019-01-16T10:31:27.537Z,7.60
2019-01-16T10:32:27.570Z,7.52
2019-01-16T10:33:27.521Z,7.49
2019-01-16T10:34:27.525Z,7.53
2019-01-16T10:35:27.858Z,7.53
2019-01-16T10:36:27.487Z,7.49
2019-01-16T10:37:27.528Z,7.42
2019-01-16T10:38:27.465Z,7.49
2019-01-16T10:39:27.492Z,7.52
2019-01-16T10:40:27.460Z,7.53
2019-01-16T10:41:27.428Z,7.55
2019-01-16T10:42:27.422Z,7.55
2019-01-16T10:43:27.411Z,7.45
2019-01-16T10:44:27.659Z,7.47
2019-01-16T10:45:27.422Z,7.50
2019-01-16T10:46:27.381Z,7.55
2019-01-16T10:47:27.367Z,7.58
2019-01-16T10:48:27.359Z,7.49
2019-01-16T10:49:27.367Z,7.56
2019-01-16T10:50:27.334Z,7.56
2019-01-16T10:51:27.326Z,7.56
2019-01-16T10:52:27.319Z,7.55
2019-01-16T10:53:27.343Z,7.60
2019-01-16T10:54:27.307Z,7.62
2019-01-16T10:55:27.282Z,7.56
2019-01-16T10:56:27.272Z,7.60
2019-01-16T10:57:27.262Z,7.62
2019-01-16T10:58:27.250Z,7.60
2019-01-16T10:59:27.466Z,7.58
2019-01-16T11:00:27.228Z,7.56
2019-01-16T11:01:27.221Z,7.56
2019-01-16T11:02:27.225Z,7.56
2019-01-16T11:03:27.221Z,7.59
2019-01-16T11:04:27.188Z,7.69
2019-01-16T11:05:27.189Z,7.62
2019-01-16T11:06:27.172Z,7.56
2019-01-16T11:07:27.162Z,7.71
2019-01-16T11:08:27.153Z,7.67
2019-01-16T11:09:27.153Z,7.74
2019-01-16T11:10:27.148Z,7.67
2019-01-16T11:11:27.118Z,7.72
2019-01-16T11:12:27.148Z,7.72
2019-01-16T11:13:27.128Z,7.74
2019-01-16T11:14:27.090Z,7.75
2019-01-16T11:15:27.093Z,7.75
2019-01-16T11:16:27.067Z,7.79
2019-01-16T11:17:27.084Z,7.81
2019-01-16T11:18:27.069Z,7.74
2019-01-16T11:19:27.045Z,7.77
2019-01-16T11:20:27.052Z,7.85
2019-01-16T11:21:27.011Z,7.89
2019-01-16T11:22:27.023Z,7.87
2019-01-16T11:23:26.993Z,7.94
2019-01-16T11:24:26.978Z,7.92
2019-01-16T11:25:26.978Z,7.89
2019-01-16T11:26:26.963Z,8.00
2019-01-16T11:27:26.943Z,7.94
2019-01-16T11:28:26.945Z,7.94
2019-01-16T11:29:26.923Z,7.96
2019-01-16T11:30:26.931Z,7.94
2019-01-16T11:31:26.911Z,7.97
2019-01-16T11:32:26.895Z,7.97
2019-01-16T11:33:26.908Z,8.08
2019-01-16T11:34:26.868Z,7.97
2019-01-16T11:35:26.905Z,7.96
2019-01-16T11:36:26.852Z,8.08
2019-01-16T11:37:26.872Z,8.04
2019-01-16T11:38:26.827Z,7.96
2019-01-16T11:39:26.823Z,8.02
2019-01-16T11:40:26.806Z,8.02
2019-01-16T11:41:26.815Z,8.08
2019-01-16T11:42:26.783Z,8.07
2019-01-16T11:43:26.775Z,8.04
2019-01-16T11:44:26.760Z,8.00
2019-01-16T11:45:26.753Z,8.02
2019-01-16T11:46:26.756Z,8.07
2019-01-16T11:47:26.731Z,8.07
2019-01-16T11:48:26.725Z,8.12
2019-01-16T11:49:26.715Z,8.12
2019-01-16T11:50:26.707Z,8.12
2019-01-16T11:51:33.538Z,8.17
2019-01-16T11:52:27.679Z,8.18
2019-01-16T11:53:26.679Z,8.15
2019-01-16T11:54:26.660Z,8.25
2019-01-16T11:55:26.685Z,8.28
2019-01-16T11:56:26.646Z,8.25
2019-01-16T11:57:26.628Z,8.28
2019-01-16T11:58:26.616Z,8.29
2019-01-16T11:59:26.616Z,8.28
2019-01-16T12:00:26.604Z,8.30
2019-01-16T12:01:26.611Z,8.37
2019-01-16T12:02:26.607Z,8.33
2019-01-16T12:03:26.568Z,8.28
2019-01-16T12:04:26.560Z,8.32
2019-01-16T12:05:26.892Z,8.22
2019-01-16T12:06:27.154Z,8.29
2019-01-16T12:07:26.523Z,8.36
2019-01-16T12:08:26.531Z,8.35
2019-01-16T12:09:26.501Z,8.28
2019-01-16T12:10:26.498Z,8.28
2019-01-16T12:11:26.511Z,8.28
2019-01-16T12:12:26.479Z,8.30
2019-01-16T12:13:26.451Z,8.30
2019-01-16T12:14:26.444Z,8.18
2019-01-16T12:15:26.431Z,8.28
2019-01-16T12:16:26.429Z,8.25
2019-01-16T12:17:26.429Z,8.28
2019-01-16T12:18:26.403Z,8.32
2019-01-16T12:19:26.415Z,8.25
2019-01-16T12:20:26.386Z,8.25
2019-01-16T12:21:26.798Z,8.20
2019-01-16T12:22:26.385Z,8.30
2019-01-16T12:23:26.347Z,8.30
2019-01-16T12:24:26.348Z,8.29
2019-01-16T12:25:26.323Z,8.29
2019-01-16T12:26:26.319Z,8.33
2019-01-16T12:27:26.318Z,8.25
2019-01-16T12:28:26.297Z,8.32
2019-01-16T12:29:26.280Z,8.26
2019-01-16T12:30:26.270Z,8.37
2019-01-16T12:31:26.259Z,8.35
2019-01-16T12:32:26.294Z,8.30
2019-01-16T12:33:26.236Z,8.37
2019-01-16T12:34:26.232Z,8.35
2019-01-16T12:35:26.213Z,8.26
2019-01-16T12:36:26.221Z,8.33
2019-01-16T12:37:26.205Z,8.30
2019-01-16T12:38:26.217Z,8.32
2019-01-16T12:39:26.175Z,8.32
2019-01-16T12:40:26.165Z,8.33
2019-01-16T12:41:26.154Z,8.28
2019-01-16T12:42:26.157Z,8.26
2019-01-16T12:43:26.132Z,8.17
2019-01-16T12:44:26.126Z,8.28
2019-01-16T12:45:26.122Z,8.26
2019-01-16T12:46:26.125Z,8.29
2019-01-16T12:47:26.144Z,8.28
2019-01-16T12:48:26.079Z,8.28
2019-01-16T12:49:26.065Z,8.26
2019-01-16T12:50:26.052Z,8.25
2019-01-16T12:51:26.045Z,8.28
2019-01-16T12:52:26.037Z,8.32
2019-01-16T12:53:26.038Z,8.29
2019-01-16T12:54:26.015Z,8.36
2019-01-16T12:55:26.006Z,8.29
2019-01-16T12:56:26.000Z,8.20
2019-01-16T12:57:26.010Z,8.32
2019-01-16T12:58:25.985Z,8.30
2019-01-16T12:59:25.962Z,8.28
2019-01-16T13:00:25.983Z,8.32
2019-01-16T13:01:25.937Z,8.29
2019-01-16T13:02:25.931Z,8.29
2019-01-16T13:03:25.931Z,8.26
2019-01-16T13:04:25.912Z,8.20
2019-01-16T13:05:25.902Z,8.20
2019-01-16T13:07:25.875Z,8.20
2019-01-16T13:08:25.874Z,8.21
2019-01-16T13:09:25.865Z,8.17
2019-01-16T13:10:25.839Z,8.15
2019-01-16T13:11:25.879Z,8.14
2019-01-16T13:12:25.815Z,8.14
2019-01-16T13:13:25.821Z,8.15
2019-01-16T13:14:30.018Z,8.14
2019-01-16T13:15:25.785Z,8.11
2019-01-16T13:16:25.774Z,8.17
2019-01-16T13:17:25.808Z,8.20
2019-01-16T13:18:25.833Z,8.25
2019-01-16T13:19:25.744Z,8.22